sensor_id;sensor_type;location;lat;lon;timestamp;P1;durP1;ratioP1;P2;durP2;ratioP2
41943;SDS011;27636;52.610;13.244;2023-07-31T00:00:38;7.50;;;2.20;;
41943;SDS011;27636;52.610;13.244;2023-07-31T00:05:43;4.38;;;2.00;;
41943;SDS011;27636;52.610;13.244;2023-07-31T00:10:47;5.28;;;2.45;;
41943;SDS011;27636;52.610;13.244;2023-07-31T00:15:54;8.77;;;2.38;;
41943;SDS011;27636;52.610;13.244;2023-07-31T00:20:59;4.38;;;1.98;;
41943;SDS011;27636;52.610;13.244;2023-07-31T00:26:02;5.10;;;2.00;;
41943;SDS011;27636;52.610;13.244;2023-07-31T00:31:06;6.57;;;2.08;;
41943;SDS011;27636;52.610;13.244;2023-07-31T00:36:11;4.25;;;1.65;;
41943;SDS011;27636;52.610;13.244;2023-07-31T00:41:15;4.72;;;1.98;;
41943;SDS011;27636;52.610;13.244;2023-07-31T00:46:18;5.38;;;2.25;;
41943;SDS011;27636;52.610;13.244;2023-07-31T00:51:24;8.30;;;2.33;;
41943;SDS011;27636;52.610;13.244;2023-07-31T00:56:28;8.00;;;1.77;;
41943;SDS011;27636;52.610;13.244;2023-07-31T01:01:32;6.45;;;1.50;;
41943;SDS011;27636;52.610;13.244;2023-07-31T01:06:40;4.88;;;2.03;;
41943;SDS011;27636;52.610;13.244;2023-07-31T01:11:52;6.78;;;2.40;;
41943;SDS011;27636;52.610;13.244;2023-07-31T01:16:59;6.10;;;2.40;;
41943;SDS011;27636;52.610;13.244;2023-07-31T01:22:11;4.45;;;1.90;;
41943;SDS011;27636;52.610;13.244;2023-07-31T01:27:27;6.47;;;2.35;;
41943;SDS011;27636;52.610;13.244;2023-07-31T01:32:33;4.97;;;1.77;;
41943;SDS011;27636;52.610;13.244;2023-07-31T01:37:38;4.70;;;1.83;;
41943;SDS011;27636;52.610;13.244;2023-07-31T01:42:42;5.60;;;2.33;;
41943;SDS011;27636;52.610;13.244;2023-07-31T01:47:46;6.25;;;2.28;;
41943;SDS011;27636;52.610;13.244;2023-07-31T01:52:49;8.32;;;2.17;;
41943;SDS011;27636;52.610;13.244;2023-07-31T01:57:54;6.05;;;2.78;;
41943;SDS011;27636;52.610;13.244;2023-07-31T02:02:59;7.07;;;2.83;;
41943;SDS011;27636;52.610;13.244;2023-07-31T02:08:03;5.90;;;2.47;;
41943;SDS011;27636;52.610;13.244;2023-07-31T02:13:10;10.27;;;2.25;;
41943;SDS011;27636;52.610;13.244;2023-07-31T02:18:14;6.10;;;2.70;;
41943;SDS011;27636;52.610;13.244;2023-07-31T02:23:18;10.95;;;2.42;;
41943;SDS011;27636;52.610;13.244;2023-07-31T02:28:23;5.07;;;2.10;;
41943;SDS011;27636;52.610;13.244;2023-07-31T02:33:26;9.77;;;2.30;;
41943;SDS011;27636;52.610;13.244;2023-07-31T02:38:30;4.85;;;2.40;;
41943;SDS011;27636;52.610;13.244;2023-07-31T02:43:35;4.70;;;2.47;;
41943;SDS011;27636;52.610;13.244;2023-07-31T02:48:38;6.70;;;2.60;;
41943;SDS011;27636;52.610;13.244;2023-07-31T02:53:42;8.80;;;2.75;;
41943;SDS011;27636;52.610;13.244;2023-07-31T02:58:47;6.43;;;2.80;;
41943;SDS011;27636;52.610;13.244;2023-07-31T03:03:51;7.95;;;3.22;;
41943;SDS011;27636;52.610;13.244;2023-07-31T03:08:55;4.68;;;2.45;;
41943;SDS011;27636;52.610;13.244;2023-07-31T03:13:59;6.80;;;2.47;;
41943;SDS011;27636;52.610;13.244;2023-07-31T03:19:03;5.05;;;2.45;;
41943;SDS011;27636;52.610;13.244;2023-07-31T03:24:06;11.52;;;2.67;;
41943;SDS011;27636;52.610;13.244;2023-07-31T03:29:11;7.50;;;3.28;;
41943;SDS011;27636;52.610;13.244;2023-07-31T03:34:15;6.22;;;2.90;;
41943;SDS011;27636;52.610;13.244;2023-07-31T03:39:18;6.97;;;2.78;;
41943;SDS011;27636;52.610;13.244;2023-07-31T03:44:23;9.93;;;3.05;;
41943;SDS011;27636;52.610;13.244;2023-07-31T03:49:26;8.18;;;3.53;;
41943;SDS011;27636;52.610;13.244;2023-07-31T03:54:30;14.07;;;4.22;;
41943;SDS011;27636;52.610;13.244;2023-07-31T03:59:35;7.28;;;3.38;;
41943;SDS011;27636;52.610;13.244;2023-07-31T04:04:38;11.43;;;3.90;;
41943;SDS011;27636;52.610;13.244;2023-07-31T04:09:42;7.88;;;3.65;;
41943;SDS011;27636;52.610;13.244;2023-07-31T04:14:47;13.80;;;4.53;;
41943;SDS011;27636;52.610;13.244;2023-07-31T04:19:50;10.70;;;4.32;;
41943;SDS011;27636;52.610;13.244;2023-07-31T04:24:54;8.75;;;4.05;;
41943;SDS011;27636;52.610;13.244;2023-07-31T04:30:00;13.50;;;3.50;;
41943;SDS011;27636;52.610;13.244;2023-07-31T04:35:03;8.85;;;4.50;;
41943;SDS011;27636;52.610;13.244;2023-07-31T04:40:08;10.00;;;4.00;;
41943;SDS011;27636;52.610;13.244;2023-07-31T04:45:13;13.93;;;4.05;;
41943;SDS011;27636;52.610;13.244;2023-07-31T04:50:20;12.02;;;3.97;;
41943;SDS011;27636;52.610;13.244;2023-07-31T04:55:23;11.38;;;3.70;;
41943;SDS011;27636;52.610;13.244;2023-07-31T05:00:28;8.68;;;4.32;;
41943;SDS011;27636;52.610;13.244;2023-07-31T05:05:32;13.48;;;3.80;;
41943;SDS011;27636;52.610;13.244;2023-07-31T05:10:36;8.45;;;4.07;;
41943;SDS011;27636;52.610;13.244;2023-07-31T05:15:41;14.30;;;4.20;;
41943;SDS011;27636;52.610;13.244;2023-07-31T05:20:45;14.50;;;4.30;;
41943;SDS011;27636;52.610;13.244;2023-07-31T05:25:48;11.93;;;4.70;;
41943;SDS011;27636;52.610;13.244;2023-07-31T05:30:58;8.82;;;4.18;;
41943;SDS011;27636;52.610;13.244;2023-07-31T05:36:02;12.20;;;4.82;;
41943;SDS011;27636;52.610;13.244;2023-07-31T05:41:06;10.73;;;4.07;;
41943;SDS011;27636;52.610;13.244;2023-07-31T05:46:11;9.73;;;4.07;;
41943;SDS011;27636;52.610;13.244;2023-07-31T05:51:15;9.85;;;4.35;;
41943;SDS011;27636;52.610;13.244;2023-07-31T05:56:18;9.23;;;3.97;;
41943;SDS011;27636;52.610;13.244;2023-07-31T06:01:23;14.60;;;4.20;;
41943;SDS011;27636;52.610;13.244;2023-07-31T06:11:30;11.68;;;3.40;;
41943;SDS011;27636;52.610;13.244;2023-07-31T06:16:35;9.27;;;3.08;;
41943;SDS011;27636;52.610;13.244;2023-07-31T06:21:40;7.88;;;2.97;;
41943;SDS011;27636;52.610;13.244;2023-07-31T06:26:46;9.10;;;2.80;;
41943;SDS011;27636;52.610;13.244;2023-07-31T06:31:50;5.65;;;2.80;;
41943;SDS011;27636;52.610;13.244;2023-07-31T06:36:54;6.45;;;2.95;;
41943;SDS011;27636;52.610;13.244;2023-07-31T06:41:58;7.00;;;2.63;;
41943;SDS011;27636;52.610;13.244;2023-07-31T06:47:03;6.10;;;2.90;;
41943;SDS011;27636;52.610;13.244;2023-07-31T06:52:08;8.07;;;2.47;;
41943;SDS011;27636;52.610;13.244;2023-07-31T06:57:12;7.37;;;2.93;;
41943;SDS011;27636;52.610;13.244;2023-07-31T07:02:17;7.85;;;2.72;;
41943;SDS011;27636;52.610;13.244;2023-07-31T07:07:20;8.85;;;2.30;;
41943;SDS011;27636;52.610;13.244;2023-07-31T07:12:24;6.70;;;2.38;;
41943;SDS011;27636;52.610;13.244;2023-07-31T07:17:29;8.15;;;2.75;;
41943;SDS011;27636;52.610;13.244;2023-07-31T07:22:36;6.18;;;2.20;;
41943;SDS011;27636;52.610;13.244;2023-07-31T07:27:39;9.02;;;2.30;;
41943;SDS011;27636;52.610;13.244;2023-07-31T07:32:44;3.40;;;1.92;;
41943;SDS011;27636;52.610;13.244;2023-07-31T07:37:48;5.13;;;1.90;;
41943;SDS011;27636;52.610;13.244;2023-07-31T07:42:55;6.10;;;2.25;;
41943;SDS011;27636;52.610;13.244;2023-07-31T07:48:00;10.43;;;2.20;;
41943;SDS011;27636;52.610;13.244;2023-07-31T07:53:03;4.63;;;1.75;;
41943;SDS011;27636;52.610;13.244;2023-07-31T07:58:07;8.07;;;2.17;;
41943;SDS011;27636;52.610;13.244;2023-07-31T08:03:12;4.93;;;2.03;;
41943;SDS011;27636;52.610;13.244;2023-07-31T08:08:16;6.20;;;2.20;;
41943;SDS011;27636;52.610;13.244;2023-07-31T08:13:20;5.33;;;2.70;;
41943;SDS011;27636;52.610;13.244;2023-07-31T08:18:25;5.97;;;1.95;;
41943;SDS011;27636;52.610;13.244;2023-07-31T08:23:28;4.70;;;1.67;;
41943;SDS011;27636;52.610;13.244;2023-07-31T08:28:32;6.13;;;1.92;;
41943;SDS011;27636;52.610;13.244;2023-07-31T08:33:37;4.47;;;1.70;;
41943;SDS011;27636;52.610;13.244;2023-07-31T08:38:40;4.78;;;1.90;;
41943;SDS011;27636;52.610;13.244;2023-07-31T08:43:44;11.88;;;2.42;;
41943;SDS011;27636;52.610;13.244;2023-07-31T08:48:50;5.78;;;2.20;;
41943;SDS011;27636;52.610;13.244;2023-07-31T08:53:55;5.55;;;1.95;;
41943;SDS011;27636;52.610;13.244;2023-07-31T08:59:00;4.53;;;2.15;;
41943;SDS011;27636;52.610;13.244;2023-07-31T09:04:09;4.35;;;1.73;;
41943;SDS011;27636;52.610;13.244;2023-07-31T09:09:13;2.00;;;1.20;;
41943;SDS011;27636;52.610;13.244;2023-07-31T09:14:18;4.63;;;1.43;;
41943;SDS011;27636;52.610;13.244;2023-07-31T09:19:26;2.00;;;1.10;;
41943;SDS011;27636;52.610;13.244;2023-07-31T09:24:33;3.30;;;1.20;;
41943;SDS011;27636;52.610;13.244;2023-07-31T09:34:42;5.72;;;1.35;;
41943;SDS011;27636;52.610;13.244;2023-07-31T09:44:50;2.77;;;1.30;;
41943;SDS011;27636;52.610;13.244;2023-07-31T09:49:56;2.08;;;1.00;;
41943;SDS011;27636;52.610;13.244;2023-07-31T09:54:59;3.55;;;1.30;;
41943;SDS011;27636;52.610;13.244;2023-07-31T10:00:03;2.88;;;1.20;;
41943;SDS011;27636;52.610;13.244;2023-07-31T10:05:15;2.47;;;1.15;;
41943;SDS011;27636;52.610;13.244;2023-07-31T10:10:19;2.20;;;1.00;;
41943;SDS011;27636;52.610;13.244;2023-07-31T10:15:23;4.20;;;0.93;;
41943;SDS011;27636;52.610;13.244;2023-07-31T10:20:29;3.65;;;1.20;;
41943;SDS011;27636;52.610;13.244;2023-07-31T10:25:33;6.72;;;1.48;;
41943;SDS011;27636;52.610;13.244;2023-07-31T10:30:38;5.55;;;1.95;;
41943;SDS011;27636;52.610;13.244;2023-07-31T10:35:44;3.77;;;1.50;;
41943;SDS011;27636;52.610;13.244;2023-07-31T10:40:50;6.40;;;2.33;;
41943;SDS011;27636;52.610;13.244;2023-07-31T10:45:53;9.65;;;2.45;;
41943;SDS011;27636;52.610;13.244;2023-07-31T10:50:58;6.53;;;2.85;;
41943;SDS011;27636;52.610;13.244;2023-07-31T10:56:02;9.98;;;2.70;;
41943;SDS011;27636;52.610;13.244;2023-07-31T11:01:07;6.97;;;2.08;;
41943;SDS011;27636;52.610;13.244;2023-07-31T11:06:12;9.70;;;2.78;;
41943;SDS011;27636;52.610;13.244;2023-07-31T11:11:20;5.38;;;2.05;;
41943;SDS011;27636;52.610;13.244;2023-07-31T11:16:24;7.55;;;2.13;;
41943;SDS011;27636;52.610;13.244;2023-07-31T11:21:30;6.60;;;2.38;;
41943;SDS011;27636;52.610;13.244;2023-07-31T11:26:34;5.45;;;2.10;;
41943;SDS011;27636;52.610;13.244;2023-07-31T11:31:41;6.70;;;2.40;;
41943;SDS011;27636;52.610;13.244;2023-07-31T11:36:53;6.28;;;2.33;;
41943;SDS011;27636;52.610;13.244;2023-07-31T11:41:58;5.95;;;2.50;;
41943;SDS011;27636;52.610;13.244;2023-07-31T11:47:03;7.45;;;2.30;;
41943;SDS011;27636;52.610;13.244;2023-07-31T11:52:08;4.40;;;1.90;;
41943;SDS011;27636;52.610;13.244;2023-07-31T11:57:12;5.82;;;2.75;;
41943;SDS011;27636;52.610;13.244;2023-07-31T12:02:16;6.15;;;2.05;;
41943;SDS011;27636;52.610;13.244;2023-07-31T12:07:23;5.55;;;2.03;;
41943;SDS011;27636;52.610;13.244;2023-07-31T12:12:26;6.00;;;2.20;;
41943;SDS011;27636;52.610;13.244;2023-07-31T12:17:30;4.35;;;1.90;;
41943;SDS011;27636;52.610;13.244;2023-07-31T12:22:35;4.50;;;2.00;;
41943;SDS011;27636;52.610;13.244;2023-07-31T12:27:38;3.47;;;1.65;;
41943;SDS011;27636;52.610;13.244;2023-07-31T12:32:42;6.82;;;2.25;;
41943;SDS011;27636;52.610;13.244;2023-07-31T12:37:48;4.97;;;2.30;;
41943;SDS011;27636;52.610;13.244;2023-07-31T12:42:52;7.30;;;2.33;;
41943;SDS011;27636;52.610;13.244;2023-07-31T12:47:56;6.63;;;2.72;;
41943;SDS011;27636;52.610;13.244;2023-07-31T12:53:01;8.55;;;2.42;;
41943;SDS011;27636;52.610;13.244;2023-07-31T12:58:06;6.75;;;2.20;;
41943;SDS011;27636;52.610;13.244;2023-07-31T13:03:09;10.95;;;2.72;;
41943;SDS011;27636;52.610;13.244;2023-07-31T13:08:15;6.03;;;2.55;;
41943;SDS011;27636;52.610;13.244;2023-07-31T13:13:20;6.68;;;2.45;;
41943;SDS011;27636;52.610;13.244;2023-07-31T13:18:25;6.00;;;2.35;;
41943;SDS011;27636;52.610;13.244;2023-07-31T13:23:30;5.80;;;2.40;;
41943;SDS011;27636;52.610;13.244;2023-07-31T13:28:34;5.70;;;2.13;;
41943;SDS011;27636;52.610;13.244;2023-07-31T13:33:37;3.95;;;1.90;;
41943;SDS011;27636;52.610;13.244;2023-07-31T13:38:47;3.85;;;1.35;;
41943;SDS011;27636;52.610;13.244;2023-07-31T13:48:54;4.65;;;1.77;;
41943;SDS011;27636;52.610;13.244;2023-07-31T13:54:00;3.60;;;1.60;;
41943;SDS011;27636;52.610;13.244;2023-07-31T13:59:04;3.58;;;1.65;;
41943;SDS011;27636;52.610;13.244;2023-07-31T14:04:08;5.05;;;1.80;;
41943;SDS011;27636;52.610;13.244;2023-07-31T14:09:14;7.20;;;2.22;;
41943;SDS011;27636;52.610;13.244;2023-07-31T14:14:17;4.80;;;1.88;;
41943;SDS011;27636;52.610;13.244;2023-07-31T14:24:29;6.35;;;2.25;;
41943;SDS011;27636;52.610;13.244;2023-07-31T14:34:36;5.70;;;2.13;;
41943;SDS011;27636;52.610;13.244;2023-07-31T14:39:41;6.63;;;2.17;;
41943;SDS011;27636;52.610;13.244;2023-07-31T14:44:46;6.18;;;2.10;;
41943;SDS011;27636;52.610;13.244;2023-07-31T14:49:50;8.85;;;2.50;;
41943;SDS011;27636;52.610;13.244;2023-07-31T14:54:54;6.75;;;2.10;;
41943;SDS011;27636;52.610;13.244;2023-07-31T15:05:02;5.70;;;1.85;;
41943;SDS011;27636;52.610;13.244;2023-07-31T15:10:07;4.65;;;1.63;;
41943;SDS011;27636;52.610;13.244;2023-07-31T15:15:11;10.13;;;2.25;;
41943;SDS011;27636;52.610;13.244;2023-07-31T15:20:15;3.63;;;1.80;;
41943;SDS011;27636;52.610;13.244;2023-07-31T15:25:20;6.30;;;2.03;;
41943;SDS011;27636;52.610;13.244;2023-07-31T15:30:23;7.32;;;2.60;;
41943;SDS011;27636;52.610;13.244;2023-07-31T15:35:28;4.78;;;2.00;;
41943;SDS011;27636;52.610;13.244;2023-07-31T15:40:33;6.50;;;1.60;;
41943;SDS011;27636;52.610;13.244;2023-07-31T15:45:37;5.90;;;2.15;;
41943;SDS011;27636;52.610;13.244;2023-07-31T15:50:41;4.68;;;2.00;;
41943;SDS011;27636;52.610;13.244;2023-07-31T15:55:46;5.80;;;1.90;;
41943;SDS011;27636;52.610;13.244;2023-07-31T16:00:49;4.47;;;1.75;;
41943;SDS011;27636;52.610;13.244;2023-07-31T16:05:53;6.45;;;2.28;;
41943;SDS011;27636;52.610;13.244;2023-07-31T16:10:57;6.38;;;1.90;;
41943;SDS011;27636;52.610;13.244;2023-07-31T16:16:01;4.28;;;1.88;;
41943;SDS011;27636;52.610;13.244;2023-07-31T16:21:05;6.03;;;1.73;;
41943;SDS011;27636;52.610;13.244;2023-07-31T16:26:10;6.63;;;2.08;;
41943;SDS011;27636;52.610;13.244;2023-07-31T16:31:14;5.78;;;2.22;;
41943;SDS011;27636;52.610;13.244;2023-07-31T16:36:17;6.97;;;2.33;;
41943;SDS011;27636;52.610;13.244;2023-07-31T16:41:23;6.22;;;2.03;;
41943;SDS011;27636;52.610;13.244;2023-07-31T16:46:27;4.88;;;1.90;;
41943;SDS011;27636;52.610;13.244;2023-07-31T16:51:33;5.35;;;1.90;;
41943;SDS011;27636;52.610;13.244;2023-07-31T16:56:38;3.70;;;1.50;;
41943;SDS011;27636;52.610;13.244;2023-07-31T17:02:02;7.28;;;2.00;;
41943;SDS011;27636;52.610;13.244;2023-07-31T17:07:06;7.18;;;3.67;;
41943;SDS011;27636;52.610;13.244;2023-07-31T17:12:10;7.97;;;2.42;;
41943;SDS011;27636;52.610;13.244;2023-07-31T17:17:15;4.88;;;1.70;;
41943;SDS011;27636;52.610;13.244;2023-07-31T17:22:19;7.17;;;2.13;;
41943;SDS011;27636;52.610;13.244;2023-07-31T17:27:37;4.32;;;2.17;;
41943;SDS011;27636;52.610;13.244;2023-07-31T17:32:41;4.20;;;1.63;;
41943;SDS011;27636;52.610;13.244;2023-07-31T17:37:45;3.97;;;1.80;;
41943;SDS011;27636;52.610;13.244;2023-07-31T17:42:50;6.25;;;2.13;;
41943;SDS011;27636;52.610;13.244;2023-07-31T17:52:57;4.50;;;1.63;;
41943;SDS011;27636;52.610;13.244;2023-07-31T17:58:02;4.30;;;1.67;;
41943;SDS011;27636;52.610;13.244;2023-07-31T18:03:06;4.43;;;1.70;;
41943;SDS011;27636;52.610;13.244;2023-07-31T18:08:11;5.45;;;2.08;;
41943;SDS011;27636;52.610;13.244;2023-07-31T18:13:17;2.87;;;1.50;;
41943;SDS011;27636;52.610;13.244;2023-07-31T18:18:20;4.47;;;1.55;;
41943;SDS011;27636;52.610;13.244;2023-07-31T18:23:25;6.33;;;1.90;;
41943;SDS011;27636;52.610;13.244;2023-07-31T18:28:30;4.90;;;2.33;;
41943;SDS011;27636;52.610;13.244;2023-07-31T18:33:34;5.20;;;1.95;;
41943;SDS011;27636;52.610;13.244;2023-07-31T18:38:41;4.20;;;1.90;;
41943;SDS011;27636;52.610;13.244;2023-07-31T18:43:46;5.30;;;1.67;;
41943;SDS011;27636;52.610;13.244;2023-07-31T18:48:49;6.32;;;1.85;;
41943;SDS011;27636;52.610;13.244;2023-07-31T18:53:53;3.22;;;1.63;;
41943;SDS011;27636;52.610;13.244;2023-07-31T18:58:58;4.40;;;1.90;;
41943;SDS011;27636;52.610;13.244;2023-07-31T19:04:03;7.78;;;2.20;;
41943;SDS011;27636;52.610;13.244;2023-07-31T19:09:09;4.70;;;1.97;;
41943;SDS011;27636;52.610;13.244;2023-07-31T19:14:14;9.23;;;1.70;;
41943;SDS011;27636;52.610;13.244;2023-07-31T19:19:18;7.28;;;2.00;;
41943;SDS011;27636;52.610;13.244;2023-07-31T19:24:22;6.88;;;2.20;;
41943;SDS011;27636;52.610;13.244;2023-07-31T19:29:35;7.88;;;2.80;;
41943;SDS011;27636;52.610;13.244;2023-07-31T19:34:38;6.95;;;2.33;;
41943;SDS011;27636;52.610;13.244;2023-07-31T19:39:42;7.80;;;2.45;;
41943;SDS011;27636;52.610;13.244;2023-07-31T19:44:47;5.70;;;1.60;;
41943;SDS011;27636;52.610;13.244;2023-07-31T19:49:51;5.30;;;2.20;;
41943;SDS011;27636;52.610;13.244;2023-07-31T19:54:54;5.32;;;2.08;;
41943;SDS011;27636;52.610;13.244;2023-07-31T19:59:59;4.47;;;1.95;;
41943;SDS011;27636;52.610;13.244;2023-07-31T20:05:12;5.82;;;2.08;;
41943;SDS011;27636;52.610;13.244;2023-07-31T20:10:16;6.13;;;2.30;;
41943;SDS011;27636;52.610;13.244;2023-07-31T20:15:21;5.45;;;2.30;;
41943;SDS011;27636;52.610;13.244;2023-07-31T20:20:26;5.45;;;2.33;;
41943;SDS011;27636;52.610;13.244;2023-07-31T20:25:30;6.97;;;2.38;;
41943;SDS011;27636;52.610;13.244;2023-07-31T20:30:37;5.28;;;1.98;;
41943;SDS011;27636;52.610;13.244;2023-07-31T20:35:41;5.40;;;2.17;;
41943;SDS011;27636;52.610;13.244;2023-07-31T20:40:44;5.15;;;2.38;;
41943;SDS011;27636;52.610;13.244;2023-07-31T20:45:50;4.88;;;2.10;;
41943;SDS011;27636;52.610;13.244;2023-07-31T20:50:54;9.10;;;2.17;;
41943;SDS011;27636;52.610;13.244;2023-07-31T20:56:02;9.13;;;2.65;;
41943;SDS011;27636;52.610;13.244;2023-07-31T21:01:07;5.90;;;2.22;;
41943;SDS011;27636;52.610;13.244;2023-07-31T21:06:11;9.93;;;3.00;;
41943;SDS011;27636;52.610;13.244;2023-07-31T21:11:16;8.43;;;2.27;;
41943;SDS011;27636;52.610;13.244;2023-07-31T21:16:21;4.47;;;1.92;;
41943;SDS011;27636;52.610;13.244;2023-07-31T21:21:25;5.00;;;1.88;;
41943;SDS011;27636;52.610;13.244;2023-07-31T21:26:28;5.95;;;2.33;;
41943;SDS011;27636;52.610;13.244;2023-07-31T21:31:33;6.38;;;2.53;;
41943;SDS011;27636;52.610;13.244;2023-07-31T21:36:37;4.82;;;1.83;;
41943;SDS011;27636;52.610;13.244;2023-07-31T21:41:41;5.80;;;2.13;;
41943;SDS011;27636;52.610;13.244;2023-07-31T21:46:46;11.73;;;3.28;;
41943;SDS011;27636;52.610;13.244;2023-07-31T21:51:50;6.32;;;2.78;;
41943;SDS011;27636;52.610;13.244;2023-07-31T21:56:53;8.80;;;2.60;;
41943;SDS011;27636;52.610;13.244;2023-07-31T22:01:58;3.92;;;1.77;;
41943;SDS011;27636;52.610;13.244;2023-07-31T22:07:02;8.18;;;2.55;;
41943;SDS011;27636;52.610;13.244;2023-07-31T22:12:06;7.03;;;3.00;;
41943;SDS011;27636;52.610;13.244;2023-07-31T22:17:11;5.63;;;1.95;;
41943;SDS011;27636;52.610;13.244;2023-07-31T22:22:14;5.00;;;2.20;;
41943;SDS011;27636;52.610;13.244;2023-07-31T22:27:18;4.28;;;2.13;;
41943;SDS011;27636;52.610;13.244;2023-07-31T22:32:23;7.70;;;2.47;;
41943;SDS011;27636;52.610;13.244;2023-07-31T22:37:27;12.15;;;3.20;;
41943;SDS011;27636;52.610;13.244;2023-07-31T22:42:30;6.90;;;2.28;;
41943;SDS011;27636;52.610;13.244;2023-07-31T22:47:37;7.20;;;3.25;;
41943;SDS011;27636;52.610;13.244;2023-07-31T22:52:42;6.72;;;2.70;;
41943;SDS011;27636;52.610;13.244;2023-07-31T22:57:46;6.57;;;2.90;;
41943;SDS011;27636;52.610;13.244;2023-07-31T23:02:51;8.82;;;3.53;;
41943;SDS011;27636;52.610;13.244;2023-07-31T23:07:54;8.30;;;3.47;;
41943;SDS011;27636;52.610;13.244;2023-07-31T23:12:58;8.75;;;3.38;;
41943;SDS011;27636;52.610;13.244;2023-07-31T23:18:03;9.38;;;3.08;;
41943;SDS011;27636;52.610;13.244;2023-07-31T23:23:10;8.70;;;3.42;;
41943;SDS011;27636;52.610;13.244;2023-07-31T23:28:13;6.72;;;2.92;;
41943;SDS011;27636;52.610;13.244;2023-07-31T23:33:20;8.05;;;3.35;;
41943;SDS011;27636;52.610;13.244;2023-07-31T23:38:23;7.68;;;3.00;;
41943;SDS011;27636;52.610;13.244;2023-07-31T23:43:27;6.57;;;3.33;;
41943;SDS011;27636;52.610;13.244;2023-07-31T23:48:31;6.05;;;2.88;;
41943;SDS011;27636;52.610;13.244;2023-07-31T23:53:35;8.20;;;3.63;;
41943;SDS011;27636;52.610;13.244;2023-07-31T23:58:38;6.57;;;2.88;;
